createdAt,value
2018-09-11T00:00:57.885Z,15.37
2018-09-11T00:04:02.128Z,15.27
2018-09-11T00:07:06.389Z,16.03
2018-09-11T00:10:10.600Z,25.97
2018-09-11T00:13:14.825Z,16.33
2018-09-11T00:16:19.120Z,20.23
2018-09-11T00:19:23.380Z,11.67
2018-09-11T00:22:27.635Z,12.50
2018-09-11T00:25:31.894Z,11.90
2018-09-11T00:28:36.126Z,15.13
2018-09-11T00:31:40.365Z,14.97
2018-09-11T00:34:44.584Z,10.43
2018-09-11T00:37:49.537Z,15.73
2018-09-11T00:40:53.736Z,10.20
2018-09-11T00:43:58.004Z,11.10
2018-09-11T00:47:02.361Z,10.83
2018-09-11T00:50:06.652Z,12.07
2018-09-11T00:53:10.889Z,12.27
2018-09-11T00:56:15.102Z,17.07
2018-09-11T00:59:19.321Z,15.27
2018-09-11T01:02:23.569Z,14.93
2018-09-11T01:05:28.965Z,13.47
2018-09-11T01:08:33.198Z,18.10
2018-09-11T01:11:37.489Z,13.07
2018-09-11T01:14:41.736Z,12.00
2018-09-11T01:17:45.937Z,13.70
2018-09-11T01:20:50.193Z,15.47
2018-09-11T01:23:54.449Z,9.20
2018-09-11T01:26:58.683Z,8.57
2018-09-11T01:30:02.901Z,12.27
2018-09-11T01:33:07.102Z,13.47
2018-09-11T01:36:11.362Z,15.67
2018-09-11T01:39:15.637Z,11.77
2018-09-11T01:42:19.864Z,16.30
2018-09-11T01:45:24.112Z,13.83
2018-09-11T01:48:28.337Z,12.97
2018-09-11T01:51:32.694Z,13.70
2018-09-11T01:54:36.918Z,15.27
2018-09-11T01:57:41.114Z,11.03
2018-09-11T02:00:45.335Z,11.47
2018-09-11T02:03:49.577Z,10.83
2018-09-11T02:06:53.798Z,8.77
2018-09-11T02:09:58.037Z,18.43
2018-09-11T02:13:02.264Z,13.77
2018-09-11T02:16:06.510Z,17.57
2018-09-11T02:19:10.751Z,16.10
2018-09-11T02:22:14.998Z,18.23
2018-09-11T02:25:19.234Z,12.37
2018-09-11T02:28:23.455Z,11.57
2018-09-11T02:31:28.690Z,14.63
2018-09-11T02:34:32.915Z,15.27
2018-09-11T02:37:37.135Z,16.50
2018-09-11T02:40:41.363Z,13.13
2018-09-11T02:43:45.608Z,10.00
2018-09-11T02:46:49.809Z,10.77
2018-09-11T02:49:54.045Z,19.60
2018-09-11T02:52:58.260Z,16.77
2018-09-11T02:56:02.500Z,10.67
2018-09-11T02:59:06.729Z,12.03
2018-09-11T03:02:10.965Z,8.80
2018-09-11T03:05:15.197Z,9.43
2018-09-11T03:08:19.433Z,13.67
2018-09-11T03:11:23.773Z,17.70
2018-09-11T03:14:28.037Z,21.00
2018-09-11T03:17:32.249Z,16.63
2018-09-11T03:20:36.608Z,16.23
2018-09-11T03:23:40.828Z,15.53
2018-09-11T03:26:45.111Z,15.17
2018-09-11T03:29:49.319Z,20.83
2018-09-11T03:32:53.557Z,12.87
2018-09-11T03:35:57.801Z,16.17
2018-09-11T03:39:02.017Z,14.30
2018-09-11T03:42:06.254Z,10.97
2018-09-11T03:45:10.483Z,13.43
2018-09-11T03:48:14.689Z,15.10
2018-09-11T03:51:18.917Z,16.30
2018-09-11T03:54:23.146Z,11.40
2018-09-11T03:57:27.377Z,18.20
2018-09-11T04:00:31.628Z,11.57
2018-09-11T04:03:35.825Z,15.30
2018-09-11T04:06:40.068Z,19.53
2018-09-11T04:09:44.290Z,15.27
2018-09-11T04:12:48.515Z,20.07
2018-09-11T04:15:52.736Z,17.73
2018-09-11T04:18:56.980Z,13.87
2018-09-11T04:22:01.198Z,19.53
2018-09-11T04:25:05.481Z,19.80
2018-09-11T04:28:09.709Z,25.10
2018-09-11T04:31:13.954Z,20.93
2018-09-11T04:34:18.181Z,25.00
2018-09-11T04:37:22.425Z,14.87
2018-09-11T04:40:26.657Z,22.13
2018-09-11T04:43:30.885Z,23.30
2018-09-11T04:46:35.097Z,18.83
2018-09-11T04:49:39.335Z,28.17
2018-09-11T04:52:43.571Z,22.77
2018-09-11T04:55:47.818Z,15.57
2018-09-11T04:58:52.143Z,14.37
2018-09-11T05:01:56.349Z,19.47
2018-09-11T05:05:00.574Z,19.83
2018-09-11T05:08:04.809Z,11.63
2018-09-11T05:11:08.988Z,9.27
2018-09-11T05:14:13.256Z,9.37
2018-09-11T05:17:17.519Z,10.70
2018-09-11T05:20:21.753Z,12.40
2018-09-11T05:23:26.008Z,11.13
2018-09-11T05:26:30.250Z,12.47
2018-09-11T05:29:34.448Z,10.07
2018-09-11T05:32:38.701Z,9.33
2018-09-11T05:35:42.904Z,11.43
2018-09-11T05:38:47.142Z,10.30
2018-09-11T05:41:51.355Z,11.80
2018-09-11T05:44:55.654Z,10.80
2018-09-11T05:47:59.868Z,15.80
2018-09-11T05:51:04.085Z,19.87
2018-09-11T05:54:08.487Z,21.10
2018-09-11T05:57:12.745Z,27.13
2018-09-11T06:00:16.985Z,22.97
2018-09-11T06:03:21.241Z,33.60
2018-09-11T06:06:25.478Z,21.57
2018-09-11T06:09:29.725Z,27.70
2018-09-11T06:12:33.940Z,28.43
2018-09-11T06:15:38.205Z,27.40
2018-09-11T06:18:42.448Z,33.53
2018-09-11T06:21:46.673Z,35.53
2018-09-11T06:24:50.954Z,28.87
2018-09-11T06:27:55.164Z,35.57
2018-09-11T06:30:59.400Z,32.17
2018-09-11T06:34:03.841Z,33.90
2018-09-11T06:37:08.077Z,36.10
2018-09-11T06:40:12.338Z,33.93
2018-09-11T06:43:16.684Z,25.97
2018-09-11T06:46:20.927Z,33.07
2018-09-11T06:49:25.164Z,35.80
2018-09-11T06:52:29.408Z,26.17
2018-09-11T06:55:33.629Z,30.60
2018-09-11T06:58:37.878Z,32.17
2018-09-11T07:01:42.125Z,29.57
2018-09-11T07:04:46.358Z,32.83
2018-09-11T07:07:50.586Z,40.33
2018-09-11T07:10:54.877Z,32.97
2018-09-11T07:13:59.083Z,33.07
2018-09-11T07:17:03.317Z,29.57
2018-09-11T07:20:08.672Z,28.33
2018-09-11T07:23:12.649Z,41.70
2018-09-11T07:26:16.895Z,34.13
2018-09-11T07:29:21.112Z,36.20
2018-09-11T07:32:25.359Z,29.50
2018-09-11T07:35:29.609Z,40.17
2018-09-11T07:38:33.837Z,36.87
2018-09-11T07:41:38.053Z,27.90
2018-09-11T07:44:42.252Z,31.77
2018-09-11T07:47:46.480Z,29.10
2018-09-11T07:50:51.406Z,29.50
2018-09-11T07:53:55.641Z,34.33
2018-09-11T07:56:59.870Z,30.83
2018-09-11T08:00:04.472Z,30.20
2018-09-11T08:03:08.742Z,24.30
2018-09-11T08:06:12.949Z,30.67
2018-09-11T08:09:17.201Z,29.07
2018-09-11T08:12:21.417Z,25.23
2018-09-11T08:15:25.698Z,28.90
2018-09-11T08:18:29.984Z,29.00
2018-09-11T08:21:34.197Z,26.33
2018-09-11T08:24:38.407Z,27.00
2018-09-11T08:27:42.608Z,32.93
2018-09-11T08:30:46.890Z,35.70
2018-09-11T08:33:51.109Z,36.70
2018-09-11T08:36:55.327Z,39.23
2018-09-11T08:39:59.549Z,36.90
2018-09-11T08:43:03.776Z,34.70
2018-09-11T08:46:08.868Z,37.30
2018-09-11T08:49:13.078Z,43.70
2018-09-11T08:52:17.280Z,35.00
2018-09-11T08:55:21.514Z,42.27
2018-09-11T08:58:25.741Z,36.03
2018-09-11T09:01:29.970Z,37.20
2018-09-11T09:04:34.169Z,43.10
2018-09-11T09:07:38.409Z,42.57
2018-09-11T09:10:42.613Z,60.57
2018-09-11T09:13:46.854Z,36.97
2018-09-11T09:16:51.082Z,33.40
2018-09-11T09:19:55.316Z,33.20
2018-09-11T09:22:59.512Z,40.03
2018-09-11T09:26:03.725Z,38.50
2018-09-11T09:29:08.764Z,40.67
2018-09-11T09:32:12.999Z,39.10
2018-09-11T09:35:17.210Z,39.60
2018-09-11T09:38:21.420Z,39.27
2018-09-11T09:41:25.613Z,37.50
2018-09-11T09:44:29.860Z,37.63
2018-09-11T09:47:34.093Z,38.90
2018-09-11T09:50:38.347Z,33.57
2018-09-11T09:53:42.557Z,39.53
2018-09-11T09:56:46.797Z,33.90
2018-09-11T09:59:51.042Z,29.43
2018-09-11T10:02:55.319Z,36.43
2018-09-11T10:05:59.569Z,36.80
2018-09-11T10:09:04.848Z,35.43
2018-09-11T10:12:09.108Z,42.73
2018-09-11T10:15:13.301Z,29.00
2018-09-11T10:18:17.529Z,24.37
2018-09-11T10:21:21.774Z,28.63
2018-09-11T10:24:25.994Z,27.03
2018-09-11T10:27:30.263Z,24.30
2018-09-11T10:30:34.441Z,26.20
2018-09-11T10:33:39.055Z,27.93
2018-09-11T10:36:43.293Z,22.70
2018-09-11T10:39:47.650Z,27.13
2018-09-11T10:42:51.855Z,23.17
2018-09-11T10:45:56.085Z,27.10
2018-09-11T10:49:00.300Z,22.57
2018-09-11T10:52:04.540Z,28.90
2018-09-11T10:55:08.781Z,24.37
2018-09-11T10:58:13.018Z,34.27
2018-09-11T11:01:17.229Z,17.27
2018-09-11T11:04:21.466Z,21.47
2018-09-11T11:07:25.679Z,19.03
2018-09-11T11:10:30.070Z,18.90
2018-09-11T11:13:35.322Z,18.00
2018-09-11T11:16:39.632Z,13.83
2018-09-11T11:19:43.847Z,14.50
2018-09-11T11:22:48.281Z,18.03
2018-09-11T11:25:52.552Z,11.60
2018-09-11T11:28:56.785Z,15.77
2018-09-11T11:32:01.031Z,14.17
2018-09-11T11:35:05.326Z,13.90
2018-09-11T11:38:09.540Z,17.30
2018-09-11T11:41:13.897Z,17.03
2018-09-11T11:44:18.096Z,14.87
2018-09-11T11:47:22.324Z,14.77
2018-09-11T11:50:26.548Z,14.60
2018-09-11T11:53:30.800Z,13.57
2018-09-11T11:56:35.020Z,14.47
2018-09-11T11:59:39.292Z,17.57
2018-09-11T12:02:43.522Z,14.63
2018-09-11T12:05:47.760Z,15.80
2018-09-11T12:08:52.011Z,11.90
2018-09-11T12:11:56.456Z,13.20
2018-09-11T12:15:00.715Z,12.77
2018-09-11T12:18:04.953Z,13.77
2018-09-11T12:21:09.202Z,13.03
2018-09-11T12:24:13.456Z,13.80
2018-09-11T12:27:17.718Z,11.27
2018-09-11T12:30:21.967Z,9.27
2018-09-11T12:33:26.218Z,8.47
2018-09-11T12:36:30.442Z,8.40
2018-09-11T12:39:34.661Z,10.97
2018-09-11T12:42:38.913Z,6.87
2018-09-11T12:45:43.155Z,7.93
2018-09-11T12:48:47.438Z,15.97
2018-09-11T12:51:51.608Z,12.23
2018-09-11T12:54:55.849Z,11.77
2018-09-11T12:58:00.053Z,15.10
2018-09-11T13:01:04.293Z,12.60
2018-09-11T13:04:08.738Z,12.77
2018-09-11T13:07:13.016Z,16.57
2018-09-11T13:10:17.220Z,21.90
2018-09-11T13:13:21.483Z,17.83
2018-09-11T13:16:25.727Z,17.13
2018-09-11T13:19:29.953Z,21.60
2018-09-11T13:22:34.201Z,23.00
2018-09-11T13:25:38.460Z,17.50
2018-09-11T13:28:42.684Z,18.27
2018-09-11T13:31:46.894Z,23.63
2018-09-11T13:34:51.146Z,22.43
2018-09-11T13:37:55.380Z,21.40
2018-09-11T13:40:59.597Z,21.17
2018-09-11T13:44:03.870Z,28.50
2018-09-11T13:47:08.190Z,24.77
2018-09-11T13:50:12.373Z,25.77
2018-09-11T13:53:16.643Z,23.80
2018-09-11T13:56:20.877Z,23.27
2018-09-11T13:59:26.055Z,15.43
2018-09-11T14:02:31.035Z,13.47
2018-09-11T14:05:35.263Z,21.27
2018-09-11T14:08:39.564Z,22.00
2018-09-11T14:11:44.557Z,24.40
2018-09-11T14:14:48.793Z,29.03
2018-09-11T14:17:53.028Z,30.33
2018-09-11T14:20:57.254Z,21.83
2018-09-11T14:24:01.528Z,17.80
2018-09-11T14:27:05.832Z,14.03
2018-09-11T14:30:10.089Z,9.00
2018-09-11T14:33:14.310Z,9.50
2018-09-11T14:36:18.549Z,12.93
2018-09-11T14:39:22.773Z,10.73
2018-09-11T14:42:27.008Z,12.43
2018-09-11T14:45:31.221Z,10.07
2018-09-11T14:48:35.416Z,11.67
2018-09-11T14:51:39.621Z,9.70
2018-09-11T14:54:43.841Z,7.57
2018-09-11T14:57:48.042Z,5.60
2018-09-11T15:00:52.233Z,7.43
2018-09-11T15:03:56.781Z,9.40
2018-09-11T15:07:01.005Z,6.33
2018-09-11T15:10:05.241Z,7.70
2018-09-11T15:13:09.453Z,15.43
2018-09-11T15:16:13.670Z,12.47
2018-09-11T15:19:18.608Z,9.97
2018-09-11T15:22:22.841Z,13.87
2018-09-11T15:25:27.066Z,19.20
2018-09-11T15:28:31.368Z,15.47
2018-09-11T15:31:35.607Z,16.80
2018-09-11T15:34:39.881Z,15.83
2018-09-11T15:37:44.106Z,17.50
2018-09-11T15:40:48.336Z,22.53
2018-09-11T15:43:52.561Z,18.43
2018-09-11T15:46:57.250Z,26.63
2018-09-11T15:50:01.514Z,18.40
2018-09-11T15:53:05.750Z,22.50
2018-09-11T15:56:10.085Z,21.43
2018-09-11T15:59:14.269Z,16.63
2018-09-11T16:02:18.506Z,16.13
2018-09-11T16:05:22.713Z,17.87
2018-09-11T16:08:26.921Z,15.90
2018-09-11T16:11:31.165Z,10.37
2018-09-11T16:14:35.431Z,18.37
2018-09-11T16:17:39.657Z,14.30
2018-09-11T16:20:43.917Z,22.03
2018-09-11T16:23:48.132Z,18.33
2018-09-11T16:26:52.357Z,16.97
2018-09-11T16:29:56.645Z,13.57
2018-09-11T16:33:00.849Z,19.17
2018-09-11T16:36:05.085Z,18.93
2018-09-11T16:39:11.609Z,15.10
2018-09-11T16:42:15.826Z,16.17
2018-09-11T16:45:20.010Z,29.80
2018-09-11T16:48:24.265Z,26.13
2018-09-11T16:51:28.488Z,18.27
2018-09-11T16:54:32.666Z,25.17
2018-09-11T16:57:36.910Z,19.67
2018-09-11T17:00:41.136Z,19.93
2018-09-11T17:03:45.379Z,18.47
2018-09-11T17:06:49.593Z,19.17
2018-09-11T17:09:53.800Z,19.90
2018-09-11T17:12:58.032Z,19.30
2018-09-11T17:16:02.276Z,20.80
2018-09-11T17:19:06.513Z,19.77
2018-09-11T17:22:10.779Z,14.77
2018-09-11T17:25:15.025Z,18.60
2018-09-11T17:28:19.251Z,15.40
2018-09-11T17:31:23.504Z,13.73
2018-09-11T17:34:27.749Z,18.87
2018-09-11T17:37:31.996Z,16.53
2018-09-11T17:40:36.254Z,17.00
2018-09-11T17:43:40.505Z,19.47
2018-09-11T17:46:44.746Z,20.13
2018-09-11T17:49:49.018Z,13.53
2018-09-11T17:52:53.248Z,17.47
2018-09-11T17:55:57.477Z,18.43
2018-09-11T17:59:01.725Z,19.07
2018-09-11T18:02:05.973Z,16.83
2018-09-11T18:05:10.195Z,17.20
2018-09-11T18:08:14.424Z,21.53
2018-09-11T18:11:18.628Z,15.13
2018-09-11T18:14:22.887Z,24.03
2018-09-11T18:17:27.109Z,20.30
2018-09-11T18:20:31.389Z,18.77
2018-09-11T18:23:35.637Z,14.60
2018-09-11T18:26:39.868Z,13.00
2018-09-11T18:29:44.114Z,19.13
2018-09-11T18:32:48.333Z,19.63
2018-09-11T18:35:52.550Z,25.43
2018-09-11T18:38:56.849Z,15.33
2018-09-11T18:42:01.104Z,20.50
2018-09-11T18:45:05.659Z,14.10
2018-09-11T18:48:09.853Z,11.07
2018-09-11T18:51:14.167Z,10.93
2018-09-11T18:54:18.376Z,15.03
2018-09-11T18:57:22.594Z,8.97
2018-09-11T19:00:29.126Z,15.57
2018-09-11T19:03:33.364Z,11.80
2018-09-11T19:06:37.592Z,12.63
2018-09-11T19:09:41.809Z,12.10
2018-09-11T19:12:46.007Z,15.33
2018-09-11T19:15:50.305Z,13.20
2018-09-11T19:18:54.520Z,18.00
2018-09-11T19:21:58.753Z,14.37
2018-09-11T19:25:02.965Z,13.97
2018-09-11T19:28:07.221Z,15.47
2018-09-11T19:31:11.455Z,19.97
2018-09-11T19:34:15.719Z,17.23
2018-09-11T19:37:19.959Z,12.10
2018-09-11T19:40:24.179Z,18.03
2018-09-11T19:43:28.400Z,15.37
2018-09-11T19:46:32.616Z,12.87
2018-09-11T19:49:36.854Z,14.73
2018-09-11T19:52:41.064Z,14.97
2018-09-11T19:55:45.285Z,9.50
2018-09-11T19:58:49.515Z,10.43
2018-09-11T20:01:53.712Z,12.60
2018-09-11T20:04:57.961Z,11.13
2018-09-11T20:08:02.170Z,10.47
2018-09-11T20:11:06.393Z,9.10
2018-09-11T20:14:10.608Z,9.73
2018-09-11T20:17:14.826Z,10.40
2018-09-11T20:20:19.037Z,13.80
2018-09-11T20:23:23.268Z,9.30
2018-09-11T20:26:27.484Z,8.63
2018-09-11T20:29:31.721Z,11.33
2018-09-11T20:32:35.939Z,9.83
2018-09-11T20:35:40.162Z,8.47
2018-09-11T20:38:44.402Z,3.57
2018-09-11T20:41:48.645Z,9.23
2018-09-11T20:44:52.892Z,7.83
2018-09-11T20:47:57.121Z,9.27
2018-09-11T20:51:01.392Z,10.83
2018-09-11T20:54:05.633Z,9.63
2018-09-11T20:57:10.010Z,12.23
2018-09-11T21:00:14.232Z,9.13
2018-09-11T21:03:18.473Z,11.03
2018-09-11T21:06:22.880Z,16.27
2018-09-11T21:09:27.105Z,13.47
2018-09-11T21:12:31.393Z,12.03
2018-09-11T21:15:35.634Z,11.83
2018-09-11T21:18:39.897Z,13.23
2018-09-11T21:21:44.141Z,15.70
2018-09-11T21:24:48.381Z,17.80
2018-09-11T21:27:52.672Z,16.90
2018-09-11T21:30:56.958Z,15.43
2018-09-11T21:34:01.185Z,14.07
2018-09-11T21:37:05.549Z,11.97
2018-09-11T21:40:09.813Z,20.57
2018-09-11T21:43:14.080Z,23.00
2018-09-11T21:46:18.361Z,19.47
2018-09-11T21:49:22.581Z,16.07
2018-09-11T21:52:26.858Z,19.97
2018-09-11T21:55:31.057Z,14.77
2018-09-11T21:58:35.256Z,17.90
2018-09-11T22:01:59.721Z,17.40
2018-09-11T22:05:03.942Z,20.13
2018-09-11T22:08:08.190Z,17.60
2018-09-11T22:11:12.396Z,16.27
2018-09-11T22:14:17.141Z,16.43
2018-09-11T22:17:21.361Z,15.43
2018-09-11T22:20:25.604Z,12.83
2018-09-11T22:23:29.888Z,14.67
2018-09-11T22:26:34.537Z,12.47
2018-09-11T22:29:38.767Z,20.60
2018-09-11T22:32:42.984Z,14.67
2018-09-11T22:35:47.204Z,19.77
2018-09-11T22:38:51.464Z,18.60
2018-09-11T22:41:55.681Z,13.93
2018-09-11T22:44:59.936Z,17.13
2018-09-11T22:48:04.174Z,14.87
2018-09-11T22:51:08.445Z,18.03
2018-09-11T22:54:12.673Z,19.07
2018-09-11T22:57:16.914Z,14.57
2018-09-11T23:00:21.130Z,16.13
2018-09-11T23:03:25.395Z,13.93
2018-09-11T23:06:29.629Z,19.63
2018-09-11T23:09:33.869Z,18.40
2018-09-11T23:12:38.081Z,18.70
2018-09-11T23:15:42.304Z,25.43
2018-09-11T23:18:46.529Z,21.77
2018-09-11T23:21:50.753Z,20.57
2018-09-11T23:24:54.973Z,20.23
2018-09-11T23:27:59.231Z,21.40
2018-09-11T23:31:03.464Z,19.53
2018-09-11T23:34:07.879Z,20.83
2018-09-11T23:37:12.109Z,15.50
2018-09-11T23:40:16.346Z,24.60
2018-09-11T23:43:20.633Z,17.03
2018-09-11T23:46:24.833Z,19.63
2018-09-11T23:49:29.057Z,25.60
2018-09-11T23:52:33.321Z,19.37
2018-09-11T23:55:37.542Z,27.07
2018-09-11T23:58:41.786Z,24.63
